createdAt,value
2017-12-04T00:01:51.179Z,81.00
2017-12-04T00:04:18.793Z,80.60
2017-12-04T00:06:46.392Z,80.80
2017-12-04T00:09:14.812Z,81.00
2017-12-04T00:11:42.404Z,81.00
2017-12-04T00:14:09.978Z,80.70
2017-12-04T00:16:37.632Z,81.00
2017-12-04T00:19:05.260Z,80.80
2017-12-04T00:21:32.964Z,80.80
2017-12-04T00:24:00.718Z,81.10
2017-12-04T00:26:28.278Z,81.00
2017-12-04T00:28:55.878Z,81.00
2017-12-04T00:31:24.065Z,81.20
2017-12-04T00:33:51.659Z,81.10
2017-12-04T00:36:20.121Z,81.30
2017-12-04T00:38:51.042Z,81.50
2017-12-04T00:41:18.668Z,81.40
2017-12-04T00:43:46.195Z,81.30
2017-12-04T00:46:13.812Z,81.00
2017-12-04T00:48:41.386Z,81.20
2017-12-04T00:51:09.430Z,81.10
2017-12-04T00:53:37.894Z,81.30
2017-12-04T00:56:05.979Z,81.90
2017-12-04T00:58:34.346Z,81.30
2017-12-04T01:01:02.308Z,81.30
2017-12-04T01:03:29.914Z,81.30
2017-12-04T01:05:57.704Z,81.30
2017-12-04T01:08:25.362Z,81.50
2017-12-04T01:10:52.986Z,81.30
2017-12-04T01:13:20.560Z,81.60
2017-12-04T01:15:48.119Z,81.90
2017-12-04T01:18:16.334Z,81.60
2017-12-04T01:20:44.206Z,82.50
2017-12-04T01:23:11.789Z,82.00
2017-12-04T01:25:39.382Z,81.60
2017-12-04T01:28:06.950Z,81.30
2017-12-04T01:30:34.511Z,81.20
2017-12-04T01:33:02.240Z,81.60
2017-12-04T01:35:29.860Z,81.50
2017-12-04T01:37:57.515Z,81.10
2017-12-04T01:40:25.567Z,81.20
2017-12-04T01:42:53.121Z,81.40
2017-12-04T01:45:20.779Z,81.40
2017-12-04T01:47:48.428Z,80.70
2017-12-04T01:50:16.315Z,80.50
2017-12-04T01:52:43.908Z,81.90
2017-12-04T01:55:11.478Z,80.60
2017-12-04T01:57:39.117Z,80.80
2017-12-04T02:00:07.266Z,80.50
2017-12-04T02:02:34.837Z,80.10
2017-12-04T02:05:02.441Z,80.90
2017-12-04T02:07:29.994Z,80.00
2017-12-04T02:09:57.617Z,79.80
2017-12-04T02:12:25.181Z,79.90
2017-12-04T02:14:52.941Z,79.50
2017-12-04T02:17:20.523Z,79.50
2017-12-04T02:19:49.238Z,80.00
2017-12-04T02:22:16.826Z,80.00
2017-12-04T02:24:44.428Z,79.60
2017-12-04T02:27:12.084Z,80.20
2017-12-04T02:29:39.710Z,79.80
2017-12-04T02:32:07.520Z,79.80
2017-12-04T02:34:35.133Z,79.80
2017-12-04T02:37:03.568Z,79.70
2017-12-04T02:39:31.502Z,79.70
2017-12-04T02:41:59.061Z,80.20
2017-12-04T02:44:26.857Z,80.10
2017-12-04T02:46:54.447Z,79.90
2017-12-04T02:49:22.822Z,80.90
2017-12-04T02:51:50.416Z,80.70
2017-12-04T02:54:18.010Z,80.80
2017-12-04T02:56:45.574Z,81.00
2017-12-04T02:59:13.165Z,81.50
2017-12-04T03:01:40.735Z,81.90
2017-12-04T03:04:08.332Z,81.90
2017-12-04T03:06:35.927Z,81.50
2017-12-04T03:09:03.578Z,81.60
2017-12-04T03:11:31.214Z,81.40
2017-12-04T03:13:58.767Z,81.40
2017-12-04T03:16:27.132Z,81.90
2017-12-04T03:18:55.463Z,81.60
2017-12-04T03:21:23.104Z,81.60
2017-12-04T03:23:50.845Z,81.00
2017-12-04T03:26:18.867Z,81.60
2017-12-04T03:28:46.719Z,81.00
2017-12-04T03:31:14.304Z,81.50
2017-12-04T03:33:41.907Z,81.10
2017-12-04T03:36:10.222Z,80.80
2017-12-04T03:38:37.806Z,80.80
2017-12-04T03:41:05.398Z,80.30
2017-12-04T03:43:33.010Z,80.40
2017-12-04T03:46:00.630Z,80.90
2017-12-04T03:48:29.586Z,80.60
2017-12-04T03:50:57.198Z,80.60
2017-12-04T03:53:24.808Z,81.00
2017-12-04T03:55:52.411Z,80.70
2017-12-04T03:58:20.011Z,80.30
2017-12-04T04:00:47.621Z,80.50
2017-12-04T04:03:16.580Z,80.60
2017-12-04T04:05:45.062Z,80.90
2017-12-04T04:08:12.627Z,81.00
2017-12-04T04:10:40.286Z,80.80
2017-12-04T04:13:07.902Z,80.90
2017-12-04T04:15:35.617Z,80.70
2017-12-04T04:18:03.294Z,80.80
2017-12-04T04:20:30.858Z,81.10
2017-12-04T04:22:59.207Z,80.50
2017-12-04T04:25:27.413Z,80.40
2017-12-04T04:27:54.987Z,80.30
2017-12-04T04:30:22.561Z,80.00
2017-12-04T04:32:50.143Z,79.60
2017-12-04T04:35:17.709Z,79.90
2017-12-04T04:37:45.313Z,79.80
2017-12-04T04:40:13.689Z,79.00
2017-12-04T04:42:41.251Z,79.60
2017-12-04T04:45:09.115Z,79.30
2017-12-04T04:47:37.485Z,79.30
2017-12-04T04:50:05.103Z,79.30
2017-12-04T04:52:32.715Z,79.60
2017-12-04T04:55:00.275Z,79.60
2017-12-04T04:57:27.837Z,79.30
2017-12-04T04:59:55.956Z,79.30
2017-12-04T05:02:23.524Z,79.50
2017-12-04T05:04:53.369Z,79.30
2017-12-04T05:07:21.934Z,79.30
2017-12-04T05:09:49.494Z,79.30
2017-12-04T05:12:17.119Z,79.00
2017-12-04T05:14:44.686Z,79.00
2017-12-04T05:17:12.285Z,79.00
2017-12-04T05:19:39.895Z,78.90
2017-12-04T05:22:07.454Z,79.10
2017-12-04T05:24:35.841Z,79.20
2017-12-04T05:27:03.421Z,79.20
2017-12-04T05:29:31.019Z,79.00
2017-12-04T05:31:58.569Z,79.80
2017-12-04T05:34:26.174Z,79.10
2017-12-04T05:36:53.726Z,79.30
2017-12-04T05:39:21.343Z,79.60
2017-12-04T05:41:48.901Z,79.60
2017-12-04T05:44:16.465Z,79.50
2017-12-04T05:46:44.866Z,79.50
2017-12-04T05:49:12.423Z,79.40
2017-12-04T05:51:40.010Z,79.70
2017-12-04T05:54:08.340Z,78.20
2017-12-04T05:56:35.970Z,78.20
2017-12-04T05:59:03.561Z,77.90
2017-12-04T06:01:31.896Z,77.70
2017-12-04T06:03:59.454Z,78.00
2017-12-04T06:06:27.155Z,78.30
2017-12-04T06:08:54.856Z,78.30
2017-12-04T06:11:22.431Z,77.80
2017-12-04T06:13:50.161Z,77.40
2017-12-04T06:16:17.984Z,78.00
2017-12-04T06:18:45.585Z,77.70
2017-12-04T06:21:13.259Z,78.30
2017-12-04T06:23:41.611Z,77.60
2017-12-04T06:26:10.096Z,77.60
2017-12-04T06:28:37.692Z,77.70
2017-12-04T06:31:06.133Z,77.90
2017-12-04T06:33:34.157Z,77.80
2017-12-04T06:36:01.993Z,77.50
2017-12-04T06:38:29.631Z,77.50
2017-12-04T06:40:57.189Z,77.70
2017-12-04T06:43:24.747Z,77.90
2017-12-04T06:45:52.511Z,78.20
2017-12-04T06:48:20.173Z,77.70
2017-12-04T06:50:47.761Z,78.70
2017-12-04T06:53:15.496Z,77.50
2017-12-04T06:55:43.158Z,77.70
2017-12-04T06:58:11.024Z,77.80
2017-12-04T07:00:38.618Z,77.80
2017-12-04T07:03:06.196Z,77.90
2017-12-04T07:05:34.627Z,76.90
2017-12-04T07:08:02.224Z,76.90
2017-12-04T07:10:29.872Z,76.50
2017-12-04T07:12:57.442Z,76.70
2017-12-04T07:15:25.173Z,77.20
2017-12-04T07:17:52.758Z,76.80
2017-12-04T07:20:20.371Z,77.80
2017-12-04T07:22:48.023Z,77.50
2017-12-04T07:25:16.739Z,76.20
2017-12-04T07:27:44.337Z,76.20
2017-12-04T07:30:11.911Z,76.70
2017-12-04T07:32:40.265Z,76.90
2017-12-04T07:35:07.942Z,76.90
2017-12-04T07:37:36.299Z,78.00
2017-12-04T07:40:04.101Z,78.10
2017-12-04T07:42:33.134Z,77.40
2017-12-04T07:45:02.424Z,77.80
2017-12-04T07:47:30.013Z,77.10
2017-12-04T07:49:57.611Z,77.10
2017-12-04T07:52:25.766Z,77.90
2017-12-04T07:54:53.346Z,77.30
2017-12-04T07:57:21.802Z,77.80
2017-12-04T07:59:49.438Z,77.40
2017-12-04T08:02:17.038Z,76.70
2017-12-04T08:04:45.424Z,76.90
2017-12-04T08:07:13.261Z,76.90
2017-12-04T08:09:40.843Z,76.10
2017-12-04T08:12:08.446Z,75.50
2017-12-04T08:14:36.038Z,75.30
2017-12-04T08:17:03.737Z,73.70
2017-12-04T08:19:32.081Z,72.60
2017-12-04T08:21:59.675Z,72.60
2017-12-04T08:24:27.265Z,73.00
2017-12-04T08:26:54.882Z,73.40
2017-12-04T08:29:22.430Z,72.90
2017-12-04T08:31:50.024Z,72.90
2017-12-04T08:34:18.469Z,73.30
2017-12-04T08:36:46.510Z,73.30
2017-12-04T08:39:14.095Z,74.20
2017-12-04T08:41:41.755Z,73.80
2017-12-04T08:44:09.539Z,74.50
2017-12-04T08:46:37.906Z,74.20
2017-12-04T08:49:05.467Z,73.70
2017-12-04T08:51:33.054Z,73.10
2017-12-04T08:54:00.650Z,73.60
2017-12-04T08:56:28.281Z,70.70
2017-12-04T08:58:56.790Z,71.70
2017-12-04T09:01:24.484Z,70.60
2017-12-04T09:03:52.178Z,69.30
2017-12-04T09:06:19.785Z,69.10
2017-12-04T09:08:47.332Z,68.80
2017-12-04T09:11:16.008Z,69.30
2017-12-04T09:13:43.751Z,69.30
2017-12-04T09:16:11.346Z,68.60
2017-12-04T09:18:38.947Z,67.40
2017-12-04T09:21:06.597Z,67.80
2017-12-04T09:23:34.244Z,68.00
2017-12-04T09:26:01.898Z,66.40
2017-12-04T09:28:29.514Z,67.60
2017-12-04T09:30:57.077Z,67.00
2017-12-04T09:33:25.420Z,67.30
2017-12-04T09:35:53.030Z,67.30
2017-12-04T09:38:20.653Z,69.40
2017-12-04T09:40:49.028Z,68.50
2017-12-04T09:43:16.650Z,68.10
2017-12-04T09:45:44.248Z,67.40
2017-12-04T09:48:11.810Z,66.80
2017-12-04T09:50:39.369Z,67.40
2017-12-04T09:53:06.960Z,67.50
2017-12-04T09:55:35.560Z,67.30
2017-12-04T09:58:03.142Z,72.90
2017-12-04T10:00:30.777Z,75.50
2017-12-04T10:02:58.501Z,79.20
2017-12-04T10:05:26.076Z,79.00
2017-12-04T10:07:53.662Z,79.60
2017-12-04T10:10:22.036Z,82.70
2017-12-04T10:12:49.626Z,78.30
2017-12-04T10:15:17.216Z,81.40
2017-12-04T10:17:44.889Z,81.10
2017-12-04T10:20:12.468Z,82.80
2017-12-04T10:22:40.065Z,79.60
2017-12-04T10:25:08.414Z,81.10
2017-12-04T10:27:36.823Z,80.40
2017-12-04T10:30:04.441Z,80.20
2017-12-04T10:32:32.021Z,81.70
2017-12-04T10:35:00.007Z,82.60
2017-12-04T10:37:28.327Z,81.20
2017-12-04T10:39:55.887Z,81.20
2017-12-04T10:42:23.570Z,80.30
2017-12-04T10:44:51.280Z,81.40
2017-12-04T10:47:18.860Z,81.60
2017-12-04T10:49:46.638Z,82.20
2017-12-04T10:52:14.299Z,82.60
2017-12-04T10:54:41.895Z,82.70
2017-12-04T10:57:09.529Z,80.70
2017-12-04T10:59:37.187Z,81.90
2017-12-04T11:02:04.790Z,82.30
2017-12-04T11:04:32.379Z,83.80
2017-12-04T11:06:59.993Z,83.60
2017-12-04T11:09:27.602Z,83.50
2017-12-04T11:11:55.667Z,82.70
2017-12-04T11:14:24.036Z,82.30
2017-12-04T11:16:53.102Z,82.70
2017-12-04T11:19:20.733Z,82.70
2017-12-04T11:21:48.419Z,82.10
2017-12-04T11:24:16.015Z,82.50
2017-12-04T11:26:44.443Z,83.00
2017-12-04T11:29:11.998Z,83.00
2017-12-04T11:31:39.647Z,83.10
2017-12-04T11:34:07.235Z,82.10
2017-12-04T11:36:34.852Z,79.80
2017-12-04T11:39:03.229Z,79.10
2017-12-04T11:41:30.839Z,78.90
2017-12-04T11:43:58.521Z,77.40
2017-12-04T11:46:26.160Z,77.90
2017-12-04T11:48:53.721Z,75.80
2017-12-04T11:51:21.280Z,73.90
2017-12-04T11:53:49.740Z,75.80
2017-12-04T11:56:17.326Z,75.90
2017-12-04T11:58:44.955Z,74.20
2017-12-04T12:01:12.565Z,74.50
2017-12-04T12:03:40.131Z,73.80
2017-12-04T12:06:07.753Z,73.60
2017-12-04T12:08:35.329Z,74.00
2017-12-04T12:11:03.038Z,74.00
2017-12-04T12:13:31.882Z,72.30
2017-12-04T12:15:59.537Z,72.20
2017-12-04T12:18:27.405Z,67.80
2017-12-04T12:20:54.961Z,69.00
2017-12-04T12:23:22.558Z,67.30
2017-12-04T12:25:50.184Z,70.50
2017-12-04T12:28:17.888Z,69.50
2017-12-04T12:30:45.490Z,70.40
2017-12-04T12:33:13.120Z,70.50
2017-12-04T12:35:40.783Z,69.50
2017-12-04T12:38:09.116Z,70.20
2017-12-04T12:40:36.751Z,70.20
2017-12-04T12:43:04.346Z,67.30
2017-12-04T12:45:32.362Z,71.00
2017-12-04T12:48:01.392Z,69.30
2017-12-04T12:50:29.100Z,69.30
2017-12-04T12:52:57.599Z,69.20
2017-12-04T12:55:25.984Z,68.50
2017-12-04T12:57:54.429Z,68.50
2017-12-04T13:00:22.139Z,68.30
2017-12-04T13:02:49.762Z,67.40
2017-12-04T13:05:17.390Z,69.10
2017-12-04T13:07:45.174Z,68.00
2017-12-04T13:10:13.095Z,65.60
2017-12-04T13:12:41.688Z,67.50
2017-12-04T13:15:09.236Z,67.60
2017-12-04T13:17:36.927Z,65.60
2017-12-04T13:20:04.541Z,65.20
2017-12-04T13:22:32.116Z,63.90
2017-12-04T13:25:00.798Z,65.80
2017-12-04T13:27:28.496Z,65.80
2017-12-04T13:29:56.787Z,65.00
2017-12-04T13:32:36.313Z,67.10
2017-12-04T13:35:15.733Z,65.10
2017-12-04T13:37:43.372Z,66.30
2017-12-04T13:40:11.128Z,67.00
2017-12-04T13:42:38.953Z,67.40
2017-12-04T13:45:06.583Z,67.50
2017-12-04T13:47:35.179Z,68.80
2017-12-04T13:50:02.902Z,69.70
2017-12-04T13:52:30.523Z,69.30
2017-12-04T13:54:58.304Z,69.80
2017-12-04T13:57:25.919Z,70.20
2017-12-04T13:59:53.636Z,71.40
2017-12-04T14:02:21.213Z,69.40
2017-12-04T14:04:49.586Z,68.40
2017-12-04T14:07:17.148Z,67.60
2017-12-04T14:09:44.785Z,68.00
2017-12-04T14:12:12.347Z,67.40
2017-12-04T14:14:39.936Z,66.90
2017-12-04T14:17:07.949Z,67.40
2017-12-04T14:19:35.647Z,65.90
2017-12-04T14:22:03.267Z,67.20
2017-12-04T14:24:30.854Z,67.60
2017-12-04T14:26:58.677Z,67.80
2017-12-04T14:29:27.010Z,71.10
2017-12-04T14:31:54.670Z,71.10
2017-12-04T14:34:22.830Z,71.30
2017-12-04T14:36:50.401Z,73.10
2017-12-04T14:39:17.950Z,73.10
2017-12-04T14:41:45.564Z,74.20
2017-12-04T14:44:13.276Z,73.60
2017-12-04T14:46:42.385Z,73.10
2017-12-04T14:49:10.627Z,73.10
2017-12-04T14:51:38.494Z,73.50
2017-12-04T14:54:06.163Z,73.40
2017-12-04T14:56:33.829Z,73.60
2017-12-04T14:59:01.427Z,74.60
2017-12-04T15:01:29.361Z,73.60
2017-12-04T15:03:57.063Z,73.00
2017-12-04T15:06:24.680Z,73.40
2017-12-04T15:08:52.272Z,73.40
2017-12-04T15:11:19.917Z,73.40
2017-12-04T15:13:47.511Z,73.20
2017-12-04T15:16:15.128Z,73.80
2017-12-04T15:18:42.690Z,74.50
2017-12-04T15:21:10.444Z,74.80
2017-12-04T15:23:38.080Z,74.90
2017-12-04T15:26:05.883Z,74.70
2017-12-04T15:28:34.286Z,74.70
2017-12-04T15:31:01.926Z,74.70
2017-12-04T15:33:29.590Z,75.40
2017-12-04T15:35:57.243Z,74.60
2017-12-04T15:38:24.802Z,73.90
2017-12-04T15:40:52.458Z,75.60
2017-12-04T15:43:20.020Z,73.30
2017-12-04T15:45:47.909Z,74.20
2017-12-04T15:48:15.466Z,73.00
2017-12-04T15:50:43.166Z,74.00
2017-12-04T15:53:11.491Z,72.40
2017-12-04T15:55:39.464Z,72.40
2017-12-04T15:58:07.028Z,72.60
2017-12-04T16:00:34.787Z,72.20
2017-12-04T16:03:02.391Z,72.50
2017-12-04T16:05:29.994Z,72.60
2017-12-04T16:07:57.549Z,72.70
2017-12-04T16:10:25.142Z,74.40
2017-12-04T16:12:53.024Z,73.20
2017-12-04T16:15:20.582Z,72.80
2017-12-04T16:17:48.382Z,72.40
2017-12-04T16:20:16.091Z,72.40
2017-12-04T16:22:43.667Z,72.20
2017-12-04T16:25:11.226Z,72.90
2017-12-04T16:27:38.816Z,71.70
2017-12-04T16:30:06.378Z,70.80
2017-12-04T16:32:33.988Z,71.30
2017-12-04T16:35:01.542Z,71.60
2017-12-04T16:37:29.227Z,71.30
2017-12-04T16:39:56.902Z,72.30
2017-12-04T16:42:24.471Z,73.10
2017-12-04T16:44:52.040Z,72.30
2017-12-04T16:47:19.679Z,73.00
2017-12-04T16:49:47.254Z,73.00
2017-12-04T16:52:14.806Z,73.20
2017-12-04T16:54:42.550Z,73.50
2017-12-04T16:57:10.139Z,73.70
2017-12-04T16:59:39.210Z,74.50
2017-12-04T17:02:06.797Z,74.50
2017-12-04T17:04:34.358Z,75.20
2017-12-04T17:07:01.927Z,75.40
2017-12-04T17:09:29.633Z,75.20
2017-12-04T17:11:57.184Z,76.70
2017-12-04T17:14:26.916Z,75.50
2017-12-04T17:16:54.614Z,75.50
2017-12-04T17:19:22.303Z,76.90
2017-12-04T17:21:50.636Z,76.40
2017-12-04T17:24:18.316Z,76.40
2017-12-04T17:26:45.927Z,76.10
2017-12-04T17:29:13.482Z,76.30
2017-12-04T17:31:41.088Z,76.10
2017-12-04T17:34:08.699Z,76.50
2017-12-04T17:36:36.304Z,76.60
2017-12-04T17:39:04.048Z,76.60
2017-12-04T17:41:31.828Z,76.70
2017-12-04T17:43:59.414Z,77.10
2017-12-04T17:46:27.050Z,77.80
2017-12-04T17:48:54.630Z,78.10
2017-12-04T17:51:22.362Z,80.10
2017-12-04T17:53:49.927Z,78.50
2017-12-04T17:56:17.745Z,78.30
2017-12-04T17:58:46.365Z,78.10
2017-12-04T18:01:14.240Z,78.10
2017-12-04T18:03:41.830Z,78.40
2017-12-04T18:06:09.397Z,77.80
2017-12-04T18:08:37.650Z,77.80
2017-12-04T18:11:05.335Z,78.00
2017-12-04T18:13:32.931Z,78.00
2017-12-04T18:16:00.623Z,77.60
2017-12-04T18:18:28.220Z,77.90
2017-12-04T18:20:56.562Z,78.20
2017-12-04T18:23:24.340Z,78.10
2017-12-04T18:25:51.968Z,78.30
2017-12-04T18:28:19.548Z,77.80
2017-12-04T18:30:47.856Z,78.00
2017-12-04T18:33:15.492Z,78.00
2017-12-04T18:35:43.112Z,78.10
2017-12-04T18:38:11.628Z,78.80
2017-12-04T18:40:39.400Z,78.30
2017-12-04T18:43:06.981Z,78.30
2017-12-04T18:45:34.597Z,79.80
2017-12-04T18:48:02.376Z,79.30
2017-12-04T18:50:30.351Z,78.90
2017-12-04T18:52:58.009Z,78.60
2017-12-04T18:55:25.567Z,79.00
2017-12-04T18:57:53.183Z,78.80
2017-12-04T19:00:22.403Z,79.20
2017-12-04T19:02:50.203Z,78.90
2017-12-04T19:05:20.749Z,79.00
2017-12-04T19:07:48.342Z,79.30
2017-12-04T19:10:16.738Z,80.00
2017-12-04T19:12:44.403Z,80.00
2017-12-04T19:15:12.088Z,80.30
2017-12-04T19:17:39.707Z,80.30
2017-12-04T19:20:08.269Z,80.30
2017-12-04T19:22:35.840Z,80.30
2017-12-04T19:25:03.390Z,79.90
2017-12-04T19:27:30.977Z,79.90
2017-12-04T19:29:59.553Z,80.40
2017-12-04T19:32:27.113Z,79.60
2017-12-04T19:34:55.462Z,81.20
2017-12-04T19:37:23.845Z,80.10
2017-12-04T19:39:51.500Z,80.00
2017-12-04T19:42:19.111Z,79.70
2017-12-04T19:44:47.472Z,79.90
2017-12-04T19:47:15.083Z,79.90
2017-12-04T19:49:42.643Z,80.10
2017-12-04T19:52:10.221Z,79.80
2017-12-04T19:54:37.819Z,79.00
2017-12-04T19:57:05.402Z,79.10
2017-12-04T19:59:33.715Z,78.60
2017-12-04T20:02:01.306Z,78.60
2017-12-04T20:04:28.902Z,78.70
2017-12-04T20:06:56.540Z,79.50
2017-12-04T20:09:25.498Z,79.40
2017-12-04T20:11:53.071Z,79.30
2017-12-04T20:14:21.468Z,80.30
2017-12-04T20:16:49.939Z,81.20
2017-12-04T20:19:17.540Z,81.70
2017-12-04T20:21:45.319Z,80.10
2017-12-04T20:24:12.868Z,80.30
2017-12-04T20:26:40.431Z,80.70
2017-12-04T20:29:08.390Z,80.90
2017-12-04T20:31:35.954Z,80.90
2017-12-04T20:34:03.634Z,81.20
2017-12-04T20:36:31.199Z,82.00
2017-12-04T20:38:59.035Z,81.50
2017-12-04T20:41:26.586Z,82.00
2017-12-04T20:43:54.556Z,81.90
2017-12-04T20:46:23.494Z,81.30
2017-12-04T20:48:51.094Z,81.30
2017-12-04T20:51:19.518Z,80.30
2017-12-04T20:53:47.086Z,80.30
2017-12-04T20:56:14.740Z,79.90
2017-12-04T20:58:42.367Z,79.40
2017-12-04T21:01:10.696Z,80.10
2017-12-04T21:03:38.259Z,80.10
2017-12-04T21:06:05.851Z,80.10
2017-12-04T21:08:45.237Z,80.80
2017-12-04T21:11:24.725Z,80.70
2017-12-04T21:14:04.032Z,79.80
2017-12-04T21:16:46.090Z,79.40
2017-12-04T21:19:14.576Z,79.80
2017-12-04T21:21:42.140Z,80.00
2017-12-04T21:24:09.731Z,80.60
2017-12-04T21:26:37.478Z,81.50
2017-12-04T21:29:05.078Z,81.60
2017-12-04T21:31:32.730Z,81.10
2017-12-04T21:34:00.282Z,81.10
2017-12-04T21:36:29.166Z,81.40
2017-12-04T21:38:56.922Z,81.40
2017-12-04T21:41:24.540Z,81.30
2017-12-04T21:43:52.115Z,81.20
2017-12-04T21:46:19.803Z,81.20
2017-12-04T21:48:47.695Z,80.80
2017-12-04T21:51:15.256Z,79.80
2017-12-04T21:53:42.857Z,79.40
2017-12-04T21:56:11.192Z,79.20
2017-12-04T21:58:38.946Z,79.00
2017-12-04T22:01:07.624Z,79.20
2017-12-04T22:03:35.182Z,79.70
2017-12-04T22:06:02.795Z,79.60
2017-12-04T22:08:30.370Z,79.80
2017-12-04T22:10:58.310Z,79.10
2017-12-04T22:13:26.038Z,78.70
2017-12-04T22:15:53.943Z,78.90
2017-12-04T22:18:21.561Z,78.50
2017-12-04T22:20:49.122Z,79.10
2017-12-04T22:23:16.695Z,78.80
2017-12-04T22:25:44.962Z,79.10
2017-12-04T22:28:14.059Z,79.80
2017-12-04T22:30:42.178Z,80.30
2017-12-04T22:33:09.744Z,81.80
2017-12-04T22:35:37.342Z,80.00
2017-12-04T22:38:05.359Z,79.90
2017-12-04T22:40:33.486Z,79.60
2017-12-04T22:43:01.265Z,79.80
2017-12-04T22:45:29.679Z,80.60
2017-12-04T22:47:57.252Z,80.60
2017-12-04T22:50:26.088Z,80.40
2017-12-04T22:52:53.681Z,80.40
2017-12-04T22:55:22.148Z,80.00
2017-12-04T22:57:49.784Z,80.00
2017-12-04T23:00:29.485Z,80.60
2017-12-04T23:02:58.835Z,79.30
2017-12-04T23:05:26.398Z,79.30
2017-12-04T23:07:53.955Z,78.80
2017-12-04T23:10:22.374Z,79.10
2017-12-04T23:12:50.342Z,79.00
2017-12-04T23:15:17.936Z,79.00
2017-12-04T23:17:45.493Z,79.50
2017-12-04T23:20:13.855Z,79.10
2017-12-04T23:22:41.465Z,79.70
2017-12-04T23:25:09.050Z,79.30
2017-12-04T23:27:36.635Z,79.20
2017-12-04T23:30:04.222Z,79.00
2017-12-04T23:32:31.852Z,78.70
2017-12-04T23:34:59.412Z,78.50
2017-12-04T23:37:27.565Z,78.40
2017-12-04T23:39:55.541Z,78.50
2017-12-04T23:42:23.161Z,78.60
2017-12-04T23:44:50.755Z,78.70
2017-12-04T23:47:18.925Z,78.30
2017-12-04T23:49:46.519Z,78.70
2017-12-04T23:52:14.258Z,79.60
2017-12-04T23:54:43.653Z,77.90
2017-12-04T23:57:11.257Z,77.90
2017-12-04T23:59:40.143Z,78.40
